Time;durP1;ratioP1;P1;durP2;ratioP2;P2;SDS_P1;SDS_P2;PMS_P1;PMS_P2;Temp;Humidity;BMP_temperature;BMP_pressure;BME280_temperature;BME280_humidity;BME280_pressure;Samples;Min_cycle;Max_cycle;Signal;HPM_P1;HPM_P2
2021/01/08 00:00:27;;;;;;;9.63;7.43;;;0.90;99.90;;;;;;6187403;23;20048;-80
2021/01/08 00:02:54;;;;;;;10.32;7.78;;;0.90;99.90;;;;;;6187249;23;20041;-79
2021/01/08 00:05:21;;;;;;;11.50;8.52;;;0.90;99.90;;;;;;6187357;23;20510;-79
2021/01/08 00:07:47;;;;;;;11.95;8.38;;;0.80;99.90;;;;;;6187303;23;20021;-80
2021/01/08 00:10:13;;;;;;;11.25;7.80;;;0.80;99.90;;;;;;6187062;23;20075;-80
2021/01/08 00:12:40;;;;;;;11.10;7.93;;;0.80;99.90;;;;;;6186398;23;20534;-79
2021/01/08 00:15:07;;;;;;;10.05;7.78;;;0.80;99.90;;;;;;6186546;23;20021;-79
2021/01/08 00:17:33;;;;;;;12.45;7.65;;;0.80;99.90;;;;;;6186542;23;20104;-79
2021/01/08 00:20:00;;;;;;;11.00;7.78;;;0.80;99.90;;;;;;6186576;23;20036;-79
2021/01/08 00:22:26;;;;;;;11.05;8.23;;;0.80;99.90;;;;;;6160356;23;20142;-79
2021/01/08 00:24:53;;;;;;;8.30;7.25;;;0.80;99.90;;;;;;6186365;23;20057;-79
2021/01/08 00:27:20;;;;;;;10.52;8.02;;;0.80;99.90;;;;;;6160081;23;20025;-79
2021/01/08 00:29:47;;;;;;;10.65;8.27;;;0.70;99.90;;;;;;6186863;23;20021;-80
2021/01/08 00:32:17;;;;;;;12.20;7.10;;;0.70;99.90;;;;;;6191797;23;20017;-80
2021/01/08 00:34:44;;;;;;;10.10;7.65;;;0.70;99.90;;;;;;6191094;23;20021;-80
2021/01/08 00:37:11;;;;;;;10.05;7.43;;;0.70;99.90;;;;;;6190698;23;20021;-80
2021/01/08 00:39:39;;;;;;;10.32;7.68;;;0.70;99.90;;;;;;6164532;23;20021;-80
2021/01/08 00:42:07;;;;;;;12.25;8.35;;;0.70;99.90;;;;;;6190099;23;20072;-80
2021/01/08 00:44:34;;;;;;;12.00;7.95;;;0.80;99.90;;;;;;6190057;23;20017;-79
2021/01/08 00:47:01;;;;;;;11.93;8.05;;;0.70;99.90;;;;;;6163776;23;20044;-80
2021/01/08 00:49:27;;;;;;;10.50;7.82;;;0.70;99.90;;;;;;6190117;23;20017;-80
2021/01/08 00:51:53;;;;;;;11.48;8.43;;;0.70;99.90;;;;;;6188866;23;20456;-80
2021/01/08 00:54:20;;;;;;;11.30;8.60;;;0.70;99.90;;;;;;6188948;23;20027;-80
2021/01/08 00:56:47;;;;;;;12.23;8.27;;;0.70;99.90;;;;;;6188647;23;20079;-80
2021/01/08 00:59:14;;;;;;;13.60;9.25;;;0.60;99.90;;;;;;6189043;23;20084;-79
2021/01/08 01:01:40;;;;;;;11.43;8.57;;;0.50;99.90;;;;;;6189252;23;20075;-79
2021/01/08 01:04:07;;;;;;;12.68;9.07;;;0.50;99.90;;;;;;6161632;23;20039;-79
2021/01/08 01:06:35;;;;;;;13.07;9.75;;;0.40;99.90;;;;;;6188537;23;20021;-80
2021/01/08 01:09:03;;;;;;;11.27;7.93;;;0.30;99.90;;;;;;6187682;23;20056;-79
2021/01/08 01:11:30;;;;;;;12.65;9.15;;;0.40;99.90;;;;;;6187657;23;20021;-79
2021/01/08 01:13:57;;;;;;;12.95;8.70;;;0.40;99.90;;;;;;6183914;23;20531;-79
2021/01/08 01:16:25;;;;;;;11.95;8.50;;;0.40;99.90;;;;;;6185719;23;20032;-79
2021/01/08 01:18:54;;;;;;;15.15;10.40;;;0.30;99.90;;;;;;6187466;23;20052;-79
2021/01/08 01:21:20;;;;;;;14.10;9.65;;;0.20;99.90;;;;;;6188018;23;20403;-79
2021/01/08 01:23:47;;;;;;;15.65;10.13;;;0.20;99.90;;;;;;6187711;23;20036;-79
2021/01/08 01:26:13;;;;;;;14.50;10.05;;;0.20;99.90;;;;;;6187495;23;20027;-79
2021/01/08 01:28:40;;;;;;;14.40;9.52;;;0.10;99.90;;;;;;6187717;23;20025;-79
2021/01/08 01:31:06;;;;;;;13.02;9.27;;;0.10;99.90;;;;;;6187017;23;20021;-79
2021/01/08 01:33:33;;;;;;;14.00;9.60;;;0.00;99.90;;;;;;6185234;23;20459;-79
2021/01/08 01:36:04;;;;;;;15.63;10.40;;;0.10;99.90;;;;;;6186729;23;20463;-79
2021/01/08 01:38:30;;;;;;;16.30;9.85;;;0.10;99.90;;;;;;6186632;23;20460;-79
2021/01/08 01:40:56;;;;;;;17.88;11.75;;;0.10;99.90;;;;;;6186995;23;20364;-79
2021/01/08 01:43:22;;;;;;;16.33;9.98;;;0.10;99.90;;;;;;6184940;23;20021;-79
2021/01/08 01:45:49;;;;;;;12.95;9.05;;;0.20;99.90;;;;;;6185161;23;20083;-79
2021/01/08 01:48:15;;;;;;;13.50;9.90;;;0.20;99.90;;;;;;6186178;23;20537;-79
2021/01/08 01:50:42;;;;;;;13.10;9.55;;;0.20;99.90;;;;;;6184665;23;20028;-79
2021/01/08 01:53:09;;;;;;;15.93;9.75;;;0.10;99.90;;;;;;6186643;23;20021;-79
2021/01/08 01:55:37;;;;;;;14.90;10.75;;;0.10;99.90;;;;;;6186483;23;20021;-79
2021/01/08 01:58:03;;;;;;;18.42;11.73;;;0.10;99.90;;;;;;6186191;23;20036;-79
2021/01/08 02:00:29;;;;;;;17.73;11.30;;;0.10;99.90;;;;;;6185707;23;20067;-79
2021/01/08 02:03:04;;;;;;;14.52;10.32;;;0.10;99.90;;;;;;6185779;23;20440;-79
2021/01/08 02:05:31;;;;;;;17.55;11.05;;;0.20;99.90;;;;;;6185147;23;20479;-79
2021/01/08 02:08:03;;;;;;;15.38;9.82;;;0.10;99.90;;;;;;6185604;23;20076;-79
2021/01/08 02:10:40;;;;;;;15.95;10.27;;;0.10;99.90;;;;;;6186087;23;20021;-79
2021/01/08 02:13:16;;;;;;;15.68;10.60;;;0.10;99.90;;;;;;6185746;23;20411;-79
2021/01/08 02:15:45;;;;;;;14.65;9.88;;;0.00;99.90;;;;;;6186049;23;20024;-79
2021/01/08 02:18:13;;;;;;;16.40;10.25;;;-0.20;99.90;;;;;;6190261;23;20021;-80
2021/01/08 02:20:39;;;;;;;17.25;10.95;;;-0.20;99.90;;;;;;6190297;23;20024;-80
2021/01/08 02:23:16;;;;;;;18.10;10.82;;;-0.20;99.90;;;;;;6189481;23;20072;-80
2021/01/08 02:25:43;;;;;;;19.83;11.32;;;-0.30;99.90;;;;;;6163661;23;20021;-80
2021/01/08 02:28:21;;;;;;;16.08;10.65;;;-0.40;99.90;;;;;;6163538;23;20048;-80
2021/01/08 02:30:49;;;;;;;17.20;10.13;;;-0.50;99.90;;;;;;6162966;23;20080;-80
2021/01/08 02:33:17;;;;;;;14.10;9.75;;;-0.40;99.90;;;;;;6189356;23;20095;-80
2021/01/08 02:35:46;;;;;;;12.95;9.30;;;-0.40;99.90;;;;;;6189095;23;20063;-80
2021/01/08 02:38:14;;;;;;;16.90;10.50;;;-0.60;99.90;;;;;;6163020;23;20049;-80
2021/01/08 02:40:44;;;;;;;17.25;10.05;;;-0.60;99.90;;;;;;6188685;23;20024;-80
2021/01/08 02:43:12;;;;;;;19.83;10.80;;;-0.70;99.90;;;;;;6187978;23;20017;-80
2021/01/08 02:45:39;;;;;;;14.50;10.55;;;-0.60;99.90;;;;;;6161745;23;20048;-79
2021/01/08 02:48:06;;;;;;;16.20;10.52;;;-0.70;99.90;;;;;;6188305;23;20017;-80
2021/01/08 02:50:33;;;;;;;16.73;10.45;;;-0.80;99.90;;;;;;6188254;23;20064;-80
2021/01/08 02:53:07;;;;;;;16.73;10.55;;;-0.70;99.90;;;;;;6188334;23;20025;-80
2021/01/08 02:55:35;;;;;;;15.13;10.10;;;-0.60;99.90;;;;;;6187579;23;20029;-80
2021/01/08 02:58:03;;;;;;;16.13;10.45;;;-0.60;99.90;;;;;;6160881;23;20044;-80
2021/01/08 03:00:31;;;;;;;16.42;10.38;;;-0.50;99.90;;;;;;6187416;23;20044;-80
2021/01/08 03:02:59;;;;;;;16.63;9.93;;;-0.50;99.90;;;;;;6161308;23;20040;-80
2021/01/08 03:05:28;;;;;;;15.35;9.95;;;-0.60;99.90;;;;;;6187351;23;20048;-80
2021/01/08 03:07:55;;;;;;;16.95;10.18;;;-0.60;99.90;;;;;;6187455;23;20408;-80
2021/01/08 03:10:26;;;;;;;14.30;9.70;;;-0.50;99.90;;;;;;6161148;23;20028;-80
2021/01/08 03:13:02;;;;;;;14.68;8.73;;;-0.60;99.90;;;;;;6186752;23;20406;-80
2021/01/08 03:15:29;;;;;;;14.23;9.40;;;-0.40;99.90;;;;;;6186737;23;20478;-80
2021/01/08 03:17:55;;;;;;;14.85;9.52;;;-0.40;99.90;;;;;;6160656;23;20355;-80
2021/01/08 03:20:22;;;;;;;12.85;9.18;;;-0.50;99.90;;;;;;6187591;23;20101;-80
2021/01/08 03:22:48;;;;;;;12.43;8.98;;;-0.40;99.90;;;;;;6187088;23;20048;-80
2021/01/08 03:25:14;;;;;;;13.52;8.68;;;-0.40;99.90;;;;;;6159741;23;20021;-80
2021/01/08 03:27:40;;;;;;;14.10;8.63;;;-0.30;99.90;;;;;;6160197;23;20373;-80
2021/01/08 03:30:08;;;;;;;13.55;8.77;;;-0.40;99.90;;;;;;6186669;23;20052;-80
2021/01/08 03:32:35;;;;;;;13.13;8.80;;;-0.40;99.90;;;;;;6187253;23;20052;-80
2021/01/08 03:35:03;;;;;;;12.27;8.50;;;-0.30;99.90;;;;;;6187546;23;20036;-80
2021/01/08 03:37:30;;;;;;;11.25;8.07;;;-0.40;99.90;;;;;;6187580;23;20021;-80
2021/01/08 03:39:56;;;;;;;12.88;8.50;;;-0.30;99.90;;;;;;6186969;23;20025;-80
2021/01/08 03:42:23;;;;;;;12.23;8.38;;;-0.30;99.90;;;;;;6187812;23;20052;-80
2021/01/08 03:44:49;;;;;;;13.35;8.30;;;-0.20;99.90;;;;;;6160989;23;20325;-80
2021/01/08 03:47:15;;;;;;;10.10;7.88;;;-0.30;99.90;;;;;;6160780;23;20403;-80
2021/01/08 03:49:41;;;;;;;11.77;8.05;;;-0.40;99.90;;;;;;6186694;23;20052;-80
2021/01/08 03:52:09;;;;;;;16.23;10.13;;;-0.30;99.90;;;;;;6160305;23;20059;-80
2021/01/08 03:54:36;;;;;;;14.60;9.25;;;-0.20;99.90;;;;;;6186731;23;20021;-80
2021/01/08 03:57:03;;;;;;;17.05;10.30;;;-0.30;99.90;;;;;;6186813;23;20083;-80
2021/01/08 03:59:30;;;;;;;12.15;9.30;;;-0.40;99.90;;;;;;6186265;23;20031;-80
2021/01/08 04:01:56;;;;;;;10.63;8.38;;;-0.30;99.90;;;;;;6160097;23;20060;-80
2021/01/08 04:04:23;;;;;;;11.30;7.70;;;-0.20;99.90;;;;;;6164962;23;20025;-81
2021/01/08 04:06:50;;;;;;;10.93;7.65;;;-0.10;99.90;;;;;;6191819;23;20101;-81
2021/01/08 04:09:19;;;;;;;9.40;7.15;;;-0.20;99.90;;;;;;6191616;23;20105;-81
2021/01/08 04:11:46;;;;;;;9.88;7.60;;;-0.20;99.90;;;;;;6191217;23;20017;-81
2021/01/08 04:14:13;;;;;;;12.63;7.38;;;-0.20;99.90;;;;;;6190820;23;20476;-80
2021/01/08 04:16:41;;;;;;;10.43;7.57;;;-0.30;99.90;;;;;;6190916;23;20027;-81
2021/01/08 04:19:09;;;;;;;12.27;8.10;;;-0.20;99.90;;;;;;6189952;23;20064;-81
2021/01/08 04:21:36;;;;;;;10.30;8.18;;;-0.30;99.90;;;;;;6190317;23;20025;-81
2021/01/08 04:24:03;;;;;;;12.60;8.00;;;-0.40;99.90;;;;;;6163893;23;20040;-80
2021/01/08 04:26:29;;;;;;;10.38;8.15;;;-0.30;99.90;;;;;;6190273;23;20021;-80
2021/01/08 04:28:56;;;;;;;8.88;6.93;;;-0.40;99.90;;;;;;6189716;23;20024;-80
2021/01/08 04:31:24;;;;;;;9.60;7.53;;;-0.30;99.90;;;;;;6189263;23;20040;-80
2021/01/08 04:33:50;;;;;;;10.30;7.15;;;-0.30;99.90;;;;;;6162859;23;20063;-80
2021/01/08 04:36:17;;;;;;;8.23;6.53;;;-0.40;99.90;;;;;;6188565;23;20407;-80
2021/01/08 04:38:43;;;;;;;9.75;7.63;;;-0.40;99.90;;;;;;6188576;23;20060;-80
2021/01/08 04:41:09;;;;;;;11.50;6.88;;;-0.30;99.90;;;;;;6162131;23;20032;-80
2021/01/08 04:43:36;;;;;;;11.82;7.90;;;-0.20;99.90;;;;;;6187683;23;20063;-80
2021/01/08 04:46:13;;;;;;;11.82;7.72;;;-0.30;99.90;;;;;;6187603;23;20028;-81
2021/01/08 04:48:42;;;;;;;10.15;7.38;;;-0.30;99.90;;;;;;6187733;23;20044;-80
2021/01/08 04:51:10;;;;;;;13.75;7.20;;;-0.20;99.90;;;;;;6188076;23;20356;-80
2021/01/08 04:53:37;;;;;;;11.18;6.80;;;-0.10;99.90;;;;;;6187832;23;20032;-80
2021/01/08 04:56:07;;;;;;;12.90;7.28;;;-0.10;99.90;;;;;;6187815;23;20111;-80
2021/01/08 04:58:34;;;;;;;9.27;6.95;;;0.00;99.90;;;;;;6161032;23;20396;-80
2021/01/08 05:01:01;;;;;;;8.80;6.63;;;-0.10;99.90;;;;;;6161136;23;20029;-80
2021/01/08 05:03:31;;;;;;;10.82;7.45;;;0.00;99.90;;;;;;6186467;23;20459;-80
2021/01/08 05:05:58;;;;;;;11.23;7.45;;;0.10;99.90;;;;;;6160805;23;20053;-80
2021/01/08 05:08:25;;;;;;;9.70;7.72;;;0.10;99.90;;;;;;6160717;23;20021;-80
2021/01/08 05:10:52;;;;;;;9.52;7.53;;;0.20;99.90;;;;;;6187000;23;20040;-80
2021/01/08 05:13:19;;;;;;;11.23;7.43;;;0.20;99.90;;;;;;6186580;23;20047;-80
2021/01/08 05:15:52;;;;;;;8.65;7.00;;;0.20;99.90;;;;;;6186763;23;20025;-80
2021/01/08 05:18:20;;;;;;;11.90;7.68;;;0.20;99.90;;;;;;6186346;23;20096;-80
2021/01/08 05:20:53;;;;;;;13.63;8.15;;;0.20;99.90;;;;;;6186894;23;20467;-80
2021/01/08 05:23:19;;;;;;;12.90;7.57;;;0.20;99.90;;;;;;6186647;23;20063;-81
2021/01/08 05:25:47;;;;;;;13.52;7.68;;;0.20;99.90;;;;;;6160532;23;20018;-80
2021/01/08 05:28:17;;;;;;;10.18;7.63;;;0.20;99.90;;;;;;6186445;23;20028;-80
2021/01/08 05:30:44;;;;;;;13.52;7.53;;;0.20;99.90;;;;;;6186100;23;20534;-80
2021/01/08 05:33:17;;;;;;;10.05;7.13;;;0.20;99.90;;;;;;6159887;23;20025;-80
2021/01/08 05:35:44;;;;;;;12.25;7.93;;;0.20;99.90;;;;;;6185865;23;20025;-81
2021/01/08 05:38:11;;;;;;;12.45;9.50;;;0.10;99.90;;;;;;6159427;23;20021;-80
2021/01/08 05:40:41;;;;;;;11.05;8.32;;;0.10;99.90;;;;;;6159611;23;20028;-80
2021/01/08 05:43:08;;;;;;;10.65;8.05;;;0.00;99.90;;;;;;6185513;23;20055;-80
2021/01/08 05:45:35;;;;;;;13.00;8.23;;;0.10;99.90;;;;;;6186327;23;20095;-80
2021/01/08 05:48:06;;;;;;;11.30;8.68;;;0.20;99.90;;;;;;6160466;23;20352;-80
2021/01/08 05:50:33;;;;;;;12.93;8.88;;;0.10;99.90;;;;;;6161953;23;20017;-81
2021/01/08 05:53:08;;;;;;;18.60;10.80;;;0.10;99.90;;;;;;6191508;23;20128;-81
2021/01/08 05:55:35;;;;;;;11.73;9.15;;;-0.10;99.90;;;;;;6164473;23;20027;-81
2021/01/08 05:58:17;;;;;;;16.02;10.18;;;0.00;99.90;;;;;;6190754;23;20104;-81
2021/01/08 06:00:53;;;;;;;14.27;10.35;;;0.00;99.90;;;;;;6189981;23;20040;-81
2021/01/08 06:03:21;;;;;;;12.52;9.15;;;0.00;99.90;;;;;;6164046;23;20028;-81
2021/01/08 06:05:54;;;;;;;12.10;8.85;;;0.00;99.90;;;;;;6163234;23;20069;-81
2021/01/08 06:08:25;;;;;;;19.88;12.20;;;0.10;99.90;;;;;;6189933;23;20021;-81
2021/01/08 06:10:53;;;;;;;10.07;7.60;;;0.20;99.90;;;;;;6162423;23;20092;-81
2021/01/08 06:13:24;;;;;;;11.40;6.85;;;0.20;99.90;;;;;;6188755;23;20025;-80
2021/01/08 06:15:53;;;;;;;9.70;7.15;;;0.30;99.90;;;;;;6162984;23;20116;-81
2021/01/08 06:18:22;;;;;;;13.20;6.90;;;0.30;99.90;;;;;;6162087;23;20025;-81
2021/01/08 06:21:05;;;;;;;12.27;7.95;;;0.30;99.90;;;;;;6188889;23;20332;-81
2021/01/08 06:23:36;;;;;;;;;;;0.30;99.90;;;;;;6188133;23;20464;-81
2021/01/08 06:26:17;;;;;;;15.90;8.75;;;0.30;99.90;;;;;;6187711;23;19924;-81
2021/01/08 06:28:49;;;;;;;21.27;9.77;;;0.20;99.90;;;;;;6188633;23;20025;-81
2021/01/08 06:31:25;;;;;;;22.50;10.50;;;0.10;99.90;;;;;;6187283;23;20538;-81
2021/01/08 06:34:00;;;;;;;20.67;10.32;;;0.10;99.90;;;;;;6187599;23;20032;-81
2021/01/08 06:36:27;;;;;;;19.40;10.35;;;0.20;99.90;;;;;;6161365;23;20021;-81
2021/01/08 06:38:59;;;;;;;21.38;10.52;;;0.10;99.90;;;;;;6187368;23;20032;-80
2021/01/08 06:41:26;;;;;;;15.75;10.55;;;0.10;99.90;;;;;;6187487;23;20044;-80
2021/01/08 06:43:55;;;;;;;13.55;9.13;;;0.00;99.90;;;;;;6187570;23;20028;-81
2021/01/08 06:46:38;;;;;;;11.88;8.00;;;0.00;99.90;;;;;;6160860;23;20087;-80
2021/01/08 06:49:08;;;;;;;8.55;7.13;;;-0.30;99.90;;;;;;6187262;23;20028;-80
2021/01/08 06:51:40;;;;;;;11.88;7.72;;;-0.30;99.90;;;;;;6160418;23;20444;-80
2021/01/08 06:54:08;;;;;;;9.45;7.00;;;-0.40;99.90;;;;;;6186422;23;20025;-80
2021/01/08 06:56:39;;;;;;;12.02;7.53;;;-0.40;99.90;;;;;;6186371;23;20028;-81
2021/01/08 06:59:09;;;;;;;8.35;6.53;;;-0.30;99.90;;;;;;6186740;23;20021;-81
2021/01/08 07:01:53;;;;;;;10.73;7.40;;;-0.30;99.90;;;;;;6186758;23;20032;-81
2021/01/08 07:04:25;;;;;;;9.23;6.78;;;-0.30;99.90;;;;;;6187324;23;20044;-80
2021/01/08 07:06:54;;;;;;;9.00;6.88;;;-0.20;99.90;;;;;;6162668;23;20048;-81
2021/01/08 07:09:30;;;;;;;15.48;7.45;;;-0.20;99.90;;;;;;6188204;23;20048;-81
2021/01/08 07:11:57;;;;;;;17.95;9.73;;;-0.20;99.90;;;;;;6188128;23;20095;-80
2021/01/08 07:14:24;;;;;;;22.95;10.63;;;-0.20;99.90;;;;;;6162713;23;20104;-80
2021/01/08 07:16:52;;;;;;;24.25;11.68;;;-0.20;99.90;;;;;;6188469;23;20025;-81
2021/01/08 07:19:21;;;;;;;12.20;8.27;;;-0.20;99.90;;;;;;6188595;23;20028;-80
2021/01/08 07:21:50;;;;;;;13.18;5.72;;;-0.30;99.90;;;;;;6188147;23;20032;-80
2021/01/08 07:24:18;;;;;;;8.27;6.43;;;-0.30;99.90;;;;;;6161500;23;20100;-81
2021/01/08 07:26:46;;;;;;;11.00;7.28;;;-0.20;99.90;;;;;;6186887;23;20116;-80
2021/01/08 07:29:13;;;;;;;13.35;7.45;;;-0.20;99.90;;;;;;6187031;23;20055;-80
2021/01/08 07:31:39;;;;;;;20.10;11.82;;;-0.20;99.90;;;;;;6186693;23;20049;-81
2021/01/08 07:34:09;;;;;;;23.05;11.82;;;-0.30;99.90;;;;;;6160913;23;20192;-81
2021/01/08 07:36:37;;;;;;;22.00;10.90;;;-0.30;99.90;;;;;;6186203;23;20302;-81
2021/01/08 07:39:06;;;;;;;14.55;8.60;;;-0.20;99.90;;;;;;6187289;23;20364;-81
2021/01/08 07:41:39;;;;;;;13.60;7.78;;;-0.30;99.90;;;;;;6192742;23;20025;-82
2021/01/08 07:44:29;;;;;;;11.70;7.20;;;-0.20;99.90;;;;;;6193297;23;20021;-82
2021/01/08 07:46:56;;;;;;;13.60;8.18;;;-0.20;99.90;;;;;;6192923;23;20053;-81
2021/01/08 07:49:27;;;;;;;34.60;15.95;;;-0.10;99.90;;;;;;6167113;23;20032;-81
2021/01/08 07:51:54;;;;;;;37.35;15.60;;;0.00;99.90;;;;;;6165761;23;20033;-81
2021/01/08 07:54:55;;;;;;;27.17;14.13;;;0.10;99.90;;;;;;6192047;23;20025;-81
2021/01/08 07:57:21;;;;;;;21.67;11.27;;;0.10;99.90;;;;;;6164892;23;20052;-81
2021/01/08 07:59:48;;;;;;;22.85;12.32;;;0.10;99.90;;;;;;6190925;23;20025;-82
2021/01/08 08:02:15;;;;;;;38.13;18.08;;;0.20;99.90;;;;;;6191090;23;20028;-81
2021/01/08 08:04:43;;;;;;;24.08;12.30;;;0.30;99.90;;;;;;6164458;23;20025;-81
2021/01/08 08:07:12;;;;;;;25.58;11.57;;;0.40;99.90;;;;;;6191272;23;20021;-81
2021/01/08 08:09:39;;;;;;;21.23;11.70;;;0.40;99.90;;;;;;6189993;23;20021;-81
2021/01/08 08:12:10;;;;;;;22.85;11.95;;;0.50;99.90;;;;;;6189633;23;20021;-81
2021/01/08 08:14:37;;;;;;;32.08;11.00;;;0.50;99.90;;;;;;6189543;23;20077;-81
2021/01/08 08:17:04;;;;;;;22.98;9.85;;;0.60;99.90;;;;;;6189208;23;20025;-81
2021/01/08 08:19:34;;;;;;;16.15;8.73;;;0.60;99.90;;;;;;6189577;23;20025;-81
2021/01/08 08:22:00;;;;;;;12.88;8.52;;;0.60;99.90;;;;;;6189857;23;20060;-81
2021/01/08 08:24:28;;;;;;;11.85;7.78;;;0.70;99.90;;;;;;6189306;23;20017;-81
2021/01/08 08:26:54;;;;;;;12.55;7.47;;;0.80;99.90;;;;;;6162440;23;20399;-81
2021/01/08 08:29:22;;;;;;;12.85;8.52;;;0.80;99.90;;;;;;6162388;23;20017;-81
2021/01/08 08:31:51;;;;;;;9.88;8.15;;;0.90;99.90;;;;;;6188448;23;20041;-81
2021/01/08 08:34:32;;;;;;;12.70;9.23;;;1.00;99.90;;;;;;6188262;23;20028;-81
2021/01/08 08:37:08;;;;;;;14.52;8.32;;;1.00;99.90;;;;;;6162204;23;20029;-81
2021/01/08 08:39:34;;;;;;;18.13;10.18;;;1.10;99.90;;;;;;6189477;23;20025;-81
2021/01/08 08:42:01;;;;;;;18.95;10.50;;;1.20;99.90;;;;;;6188004;23;20103;-81
2021/01/08 08:44:27;;;;;;;7.60;6.07;;;1.20;99.90;;;;;;6161511;23;20460;-81
2021/01/08 08:46:55;;;;;;;8.68;6.35;;;1.20;99.90;;;;;;6188322;23;20049;-81
2021/01/08 08:49:33;;;;;;;8.55;5.45;;;1.30;99.90;;;;;;6188056;23;20021;-81
2021/01/08 08:52:00;;;;;;;7.45;5.45;;;1.30;99.90;;;;;;6189087;23;20025;-81
2021/01/08 08:54:27;;;;;;;12.18;6.10;;;1.40;99.90;;;;;;6187973;23;20151;-81
2021/01/08 08:56:58;;;;;;;13.05;6.35;;;1.50;99.90;;;;;;6161519;23;20059;-81
2021/01/08 08:59:44;;;;;;;10.25;6.30;;;1.60;99.90;;;;;;6161917;23;20363;-81
2021/01/08 09:02:22;;;;;;;9.50;5.40;;;1.60;99.90;;;;;;6187610;23;20056;-80
2021/01/08 09:04:53;;;;;;;7.50;5.40;;;1.70;99.90;;;;;;6162069;23;20017;-80
2021/01/08 09:07:34;;;;;;;3.75;3.38;;;1.70;99.90;;;;;;6188187;23;20396;-81
2021/01/08 09:10:16;;;;;;;7.07;5.30;;;1.70;99.90;;;;;;6161307;23;20017;-80
2021/01/08 09:13:00;;;;;;;5.88;3.47;;;1.80;99.90;;;;;;6168423;23;20027;-80
2021/01/08 09:15:30;;;;;;;6.10;5.25;;;1.90;99.90;;;;;;6184838;23;20526;-80
2021/01/08 09:18:25;;;;;;;9.20;6.93;;;1.90;99.90;;;;;;6184455;23;20067;-80
2021/01/08 09:21:17;;;;;;;21.15;14.70;;;2.00;99.90;;;;;;6184688;23;20033;-80
2021/01/08 09:23:46;;;;;;;46.45;32.28;;;2.10;99.90;;;;;;6167674;23;20021;-80
2021/01/08 09:26:17;;;;;;;42.65;28.23;;;2.20;99.90;;;;;;6186225;23;20059;-80
2021/01/08 09:28:46;;;;;;;19.88;9.98;;;2.30;99.90;;;;;;6186742;23;20083;-80
2021/01/08 09:31:13;;;;;;;21.38;7.78;;;2.60;99.90;;;;;;6186704;23;20017;-80
2021/01/08 09:33:40;;;;;;;16.33;7.32;;;2.70;99.90;;;;;;6188862;23;20021;-80
2021/01/08 09:36:07;;;;;;;7.95;7.07;;;3.00;99.90;;;;;;6186485;23;20025;-80
2021/01/08 09:38:36;;;;;;;14.35;11.45;;;3.20;99.90;;;;;;6186801;23;20471;-80
2021/01/08 09:41:04;;;;;;;6.93;4.57;;;3.30;99.90;;;;;;6188330;23;20112;-80
2021/01/08 09:43:30;;;;;;;5.05;4.65;;;3.40;99.90;;;;;;6188141;23;20017;-80
2021/01/08 09:46:05;;;;;;;22.83;20.50;;;3.50;99.90;;;;;;6188230;23;20032;-80
2021/01/08 09:48:32;;;;;;;25.48;18.95;;;3.50;99.90;;;;;;6188529;23;20036;-80
2021/01/08 09:51:05;;;;;;;10.27;7.13;;;3.70;99.90;;;;;;6186692;23;20021;-80
2021/01/08 09:53:34;;;;;;;;;;;3.70;99.90;;;;;;6188925;23;20048;-80
2021/01/08 09:56:31;;;;;;;5.85;4.95;;;3.70;99.90;;;;;;6188215;23;19916;-80
2021/01/08 09:59:15;;;;;;;4.93;4.53;;;3.70;99.90;;;;;;6167907;23;20404;-80
2021/01/08 10:02:04;;;;;;;4.30;3.90;;;3.90;99.90;;;;;;6187897;23;20021;-80
2021/01/08 10:04:35;;;;;;;3.53;3.22;;;4.10;99.90;;;;;;6186327;23;20027;-80
2021/01/08 10:07:05;;;;;;;6.70;3.45;;;3.90;99.90;;;;;;6185688;23;20033;-79
2021/01/08 10:09:48;;;;;;;4.32;3.47;;;3.90;99.90;;;;;;6187524;23;20053;-80
2021/01/08 10:12:17;;;;;;;5.28;3.00;;;3.90;99.90;;;;;;6187354;23;20044;-79
2021/01/08 10:14:44;;;;;;;2.50;2.30;;;3.80;99.90;;;;;;6187086;23;20029;-79
2021/01/08 10:17:17;;;;;;;3.75;3.33;;;3.60;99.90;;;;;;6186860;23;20025;-80
2021/01/08 10:19:46;;;;;;;4.72;4.15;;;3.60;99.90;;;;;;6186982;23;20028;-79
2021/01/08 10:22:18;;;;;;;5.60;4.22;;;3.60;99.90;;;;;;6160521;23;20075;-79
2021/01/08 10:24:44;;;;;;;5.65;5.07;;;3.70;99.90;;;;;;6186816;23;20053;-80
2021/01/08 10:27:10;;;;;;;4.18;3.78;;;3.90;99.90;;;;;;6186820;23;20056;-79
2021/01/08 10:29:38;;;;;;;6.72;5.50;;;4.00;99.90;;;;;;6160403;23;20044;-80
2021/01/08 10:32:06;;;;;;;4.72;4.32;;;4.10;99.90;;;;;;6160182;23;20017;-80
2021/01/08 10:34:38;;;;;;;3.75;3.40;;;4.00;99.90;;;;;;6160504;23;20043;-79
2021/01/08 10:37:05;;;;;;;3.67;3.45;;;4.00;99.90;;;;;;6160172;23;20352;-79
2021/01/08 10:39:31;;;;;;;4.50;4.10;;;3.90;99.90;;;;;;6185745;23;20075;-79
2021/01/08 10:41:57;;;;;;;3.05;2.85;;;4.00;99.90;;;;;;6159861;23;20021;-79
2021/01/08 10:44:40;;;;;;;3.40;3.10;;;4.00;99.90;;;;;;6186495;23;20021;-80
2021/01/08 10:47:07;;;;;;;4.10;2.75;;;4.00;99.90;;;;;;6185979;23;20507;-79
2021/01/08 10:49:37;;;;;;;3.00;2.80;;;4.00;99.90;;;;;;6185766;23;20021;-79
2021/01/08 10:52:09;;;;;;;3.45;3.15;;;4.10;99.90;;;;;;6160243;23;20559;-79
2021/01/08 10:54:36;;;;;;;3.00;2.80;;;4.20;99.90;;;;;;6186235;23;20452;-79
2021/01/08 10:57:02;;;;;;;2.80;2.60;;;4.50;99.90;;;;;;6160051;23;20028;-79
2021/01/08 10:59:28;;;;;;;2.70;2.50;;;4.70;99.90;;;;;;6185588;23;20025;-79
2021/01/08 11:01:54;;;;;;;2.55;2.45;;;4.80;99.90;;;;;;6159740;23;20056;-79
2021/01/08 11:04:36;;;;;;;4.95;2.38;;;5.00;99.90;;;;;;6185985;23;20029;-79
2021/01/08 11:07:03;;;;;;;5.18;4.68;;;5.10;99.90;;;;;;6159376;23;20075;-79
2021/01/08 11:09:29;;;;;;;4.43;2.60;;;5.00;99.90;;;;;;6159085;23;20021;-79
2021/01/08 11:11:55;;;;;;;2.97;2.80;;;5.00;99.90;;;;;;6185192;23;20056;-79
2021/01/08 11:14:22;;;;;;;5.80;2.75;;;5.10;99.90;;;;;;6185206;23;20025;-79
2021/01/08 11:16:48;;;;;;;2.70;2.60;;;5.20;99.90;;;;;;6158647;23;20025;-80
2021/01/08 11:19:15;;;;;;;2.38;2.28;;;5.20;99.90;;;;;;6159394;23;20025;-79
2021/01/08 11:21:41;;;;;;;3.65;2.60;;;5.00;99.90;;;;;;6163812;23;20025;-80
2021/01/08 11:24:07;;;;;;;2.78;2.58;;;4.70;99.90;;;;;;6164037;23;20092;-80
2021/01/08 11:26:34;;;;;;;2.67;2.50;;;4.60;99.90;;;;;;6189063;23;20048;-80
2021/01/08 11:29:01;;;;;;;2.80;2.70;;;4.40;99.90;;;;;;6190085;23;20044;-80
2021/01/08 11:31:36;;;;;;;2.70;2.60;;;4.20;99.90;;;;;;6162802;23;20021;-80
2021/01/08 11:34:03;;;;;;;2.63;2.50;;;4.20;99.90;;;;;;6187988;23;20349;-80
2021/01/08 11:36:30;;;;;;;2.85;2.65;;;4.20;99.90;;;;;;6161398;23;20032;-80
2021/01/08 11:38:58;;;;;;;11.77;8.68;;;4.20;99.90;;;;;;6188145;23;20025;-79
2021/01/08 11:41:25;;;;;;;9.13;6.25;;;4.30;99.90;;;;;;6188237;23;20348;-80
2021/01/08 11:43:52;;;;;;;6.90;4.85;;;4.30;99.90;;;;;;6187594;23;20017;-79
2021/01/08 11:46:20;;;;;;;5.72;5.22;;;4.40;99.90;;;;;;6187454;23;20041;-80
2021/01/08 11:48:47;;;;;;;5.00;4.28;;;4.40;99.90;;;;;;6187628;23;20023;-80
2021/01/08 11:51:14;;;;;;;3.60;3.40;;;4.30;99.90;;;;;;6162400;23;20360;-80
2021/01/08 11:53:44;;;;;;;3.42;3.13;;;4.40;99.90;;;;;;6189262;23;20021;-80
2021/01/08 11:56:11;;;;;;;5.40;3.78;;;4.50;99.90;;;;;;6189193;23;20032;-80
2021/01/08 11:58:38;;;;;;;26.95;14.68;;;4.60;99.90;;;;;;6162069;23;20071;-79
2021/01/08 12:01:05;;;;;;;9.70;6.95;;;4.60;99.90;;;;;;6188390;23;20461;-80
2021/01/08 12:03:32;;;;;;;6.30;4.00;;;4.60;99.90;;;;;;6162188;23;20025;-79
2021/01/08 12:05:59;;;;;;;6.97;3.28;;;4.50;99.90;;;;;;6188231;23;20017;-80
2021/01/08 12:08:25;;;;;;;5.70;4.15;;;4.60;99.90;;;;;;6187981;23;20021;-79
2021/01/08 12:10:54;;;;;;;8.00;4.65;;;4.50;99.90;;;;;;6188270;23;20101;-80
2021/01/08 12:13:21;;;;;;;8.77;4.80;;;4.50;99.90;;;;;;6187888;23;20028;-80
2021/01/08 12:15:48;;;;;;;5.55;4.40;;;4.50;99.90;;;;;;6188479;23;20053;-80
2021/01/08 12:18:15;;;;;;;5.88;3.90;;;4.50;99.90;;;;;;6161652;23;20021;-80
2021/01/08 12:20:41;;;;;;;4.97;4.13;;;4.60;99.90;;;;;;6161954;23;20056;-79
2021/01/08 12:23:08;;;;;;;3.17;2.97;;;4.70;99.90;;;;;;6188347;23;20021;-80
2021/01/08 12:25:36;;;;;;;3.30;3.10;;;4.70;99.90;;;;;;6188169;23;20052;-80
2021/01/08 12:28:07;;;;;;;2.58;2.40;;;4.70;99.90;;;;;;6162335;23;20409;-80
2021/01/08 12:30:44;;;;;;;3.25;3.05;;;4.60;99.90;;;;;;6188600;23;20017;-80
2021/01/08 12:33:10;;;;;;;2.95;2.75;;;4.30;99.90;;;;;;6188485;23;20028;-80
2021/01/08 12:35:37;;;;;;;2.88;2.67;;;4.30;99.90;;;;;;6188246;23;20406;-80
2021/01/08 12:38:03;;;;;;;6.20;4.97;;;4.30;99.90;;;;;;6161981;23;20075;-80
2021/01/08 12:40:29;;;;;;;4.57;4.20;;;4.60;99.90;;;;;;6188519;23;20048;-80
2021/01/08 12:43:05;;;;;;;3.80;3.50;;;4.60;99.90;;;;;;6163923;23;20021;-80
2021/01/08 12:45:31;;;;;;;4.22;3.30;;;4.90;99.90;;;;;;6187837;23;20021;-80
2021/01/08 12:47:58;;;;;;;4.05;3.35;;;5.10;99.90;;;;;;6159935;23;20325;-79
2021/01/08 12:50:25;;;;;;;3.92;3.63;;;5.20;99.90;;;;;;6186393;23;20025;-79
2021/01/08 12:52:51;;;;;;;3.17;2.88;;;5.30;99.90;;;;;;6160131;23;20025;-80
2021/01/08 12:55:17;;;;;;;3.03;2.60;;;5.40;99.90;;;;;;6186318;23;20057;-80